Time;durP1;ratioP1;P1;durP2;ratioP2;P2;SDS_P1;SDS_P2;PMS_P1;PMS_P2;Temp;Humidity;BMP_temperature;BMP_pressure;BME280_temperature;BME280_humidity;BME280_pressure;Samples;Min_cycle;Max_cycle;Signal;HPM_P1;HPM_P2
2020/12/31 00:01:27;;;;;;;;;;;7.00;77.40;;;;;;4991840;28;117868;-86
2020/12/31 00:03:53;;;;;;;;;;;7.00;78.00;;;;;;4992268;28;117858;-86
2020/12/31 00:06:19;;;;;;;;;;;7.00;77.40;;;;;;4992417;28;121688;-86
2020/12/31 00:08:44;;;;;;;;;;;7.00;77.40;;;;;;4991351;27;119515;-86
2020/12/31 00:11:10;;;;;;;;;;;7.10;77.40;;;;;;4992815;28;117704;-86
2020/12/31 00:13:36;;;;;;;;;;;7.00;77.40;;;;;;4993318;28;117730;-86
2020/12/31 00:16:01;;;;;;;;;;;7.10;77.40;;;;;;4992124;28;120480;-86
2020/12/31 00:18:27;;;;;;;;;;;7.10;77.40;;;;;;4991889;27;120463;-86
2020/12/31 00:20:52;;;;;;;;;;;7.00;77.30;;;;;;4992834;28;117326;-86
2020/12/31 00:23:18;;;;;;;;;;;7.00;77.30;;;;;;4993321;28;117797;-86
2020/12/31 00:25:53;;;;;;;;;;;7.00;77.30;;;;;;4991662;28;120159;-86
2020/12/31 00:28:19;;;;;;;;;;;7.00;77.30;;;;;;4991156;28;119338;-87
2020/12/31 00:30:44;;;;;;;;;;;7.00;77.30;;;;;;4991932;28;117610;-86
2020/12/31 00:33:11;;;;;;;;;;;7.00;77.30;;;;;;5009720;28;117718;-86
2020/12/31 00:35:36;;;;;;;;;;;7.00;77.30;;;;;;4991700;28;119776;-86
2020/12/31 00:38:02;;;;;;;;;;;7.00;77.20;;;;;;4991888;28;119802;-86
2020/12/31 00:40:27;;;;;;;;;;;7.00;77.20;;;;;;4992413;28;117625;-86
2020/12/31 00:42:53;;;;;;;;;;;7.00;77.20;;;;;;4993181;28;117757;-86
2020/12/31 00:45:19;;;;;;;;;;;7.00;77.20;;;;;;4991706;28;119994;-86
2020/12/31 00:47:44;;;;;;;;;;;7.00;77.20;;;;;;4991489;28;119217;-86
2020/12/31 00:50:10;;;;;;;;;;;7.00;77.10;;;;;;4992236;28;117505;-86
2020/12/31 00:52:35;;;;;;;;;;;7.10;77.20;;;;;;4992155;28;117585;-86
2020/12/31 00:55:01;;;;;;;;;;;7.00;77.10;;;;;;5008277;28;118393;-86
2020/12/31 00:57:26;;;;;;;;;;;7.00;77.10;;;;;;4991356;28;119436;-86
2020/12/31 00:59:52;;;;;;;;;;;7.00;77.10;;;;;;5009038;28;117505;-86
2020/12/31 01:02:18;;;;;;;;;;;7.00;77.10;;;;;;4992309;28;117986;-86
2020/12/31 01:04:43;;;;;;;;;;;7.00;77.00;;;;;;4991256;28;119692;-86
2020/12/31 01:07:10;;;;;;;;;;;7.00;77.00;;;;;;4990874;28;120732;-86
2020/12/31 01:09:36;;;;;;;;;;;7.00;77.00;;;;;;4991797;28;117789;-86
2020/12/31 01:12:01;;;;;;;;;;;7.00;77.00;;;;;;4992342;28;117827;-86
2020/12/31 01:14:27;;;;;;;;;;;7.00;77.00;;;;;;4991105;28;119750;-86
2020/12/31 01:16:52;;;;;;;;;;;7.00;77.00;;;;;;4989408;28;119641;-86
2020/12/31 01:19:18;;;;;;;;;;;7.00;77.00;;;;;;4991506;28;117687;-86
2020/12/31 01:21:44;;;;;;;;;;;7.00;76.90;;;;;;4992004;28;117462;-86
2020/12/31 01:24:10;;;;;;;;;;;7.00;76.90;;;;;;4990764;28;121494;-86
2020/12/31 01:26:36;;;;;;;;;;;7.00;76.90;;;;;;4991020;28;119570;-86
2020/12/31 01:29:02;;;;;;;;;;;7.00;76.90;;;;;;4991493;28;117535;-86
2020/12/31 01:31:28;;;;;;;;;;;7.00;76.90;;;;;;5008851;28;117897;-86
2020/12/31 01:33:53;;;;;;;;;;;7.00;76.80;;;;;;4990922;28;121250;-86
2020/12/31 01:36:19;;;;;;;;;;;7.00;76.80;;;;;;4990740;28;119697;-86
2020/12/31 01:38:45;;;;;;;;;;;7.00;76.80;;;;;;4991359;27;117764;-86
2020/12/31 01:41:11;;;;;;;;;;;7.00;76.80;;;;;;4991426;28;117386;-86
2020/12/31 01:43:36;;;;;;;;;;;7.00;76.80;;;;;;4990745;28;120260;-86
2020/12/31 01:46:02;;;;;;;;;;;7.00;76.80;;;;;;4990868;28;118976;-86
2020/12/31 01:48:27;;;;;;;;;;;7.00;76.80;;;;;;4991384;28;117570;-86
2020/12/31 01:50:53;;;;;;;;;;;7.00;76.70;;;;;;4991631;28;117857;-86
2020/12/31 01:53:19;;;;;;;;;;;7.00;76.70;;;;;;4990406;28;121210;-86
2020/12/31 01:55:45;;;;;;;;;;;7.00;76.70;;;;;;4990552;28;119869;-86
2020/12/31 01:58:10;;;;;;;;;;;7.00;76.70;;;;;;4991588;28;117515;-86
2020/12/31 02:00:36;;;;;;;;;;;7.00;76.70;;;;;;4979679;28;117947;-86
2020/12/31 02:03:01;;;;;;;;;;;7.00;77.20;;;;;;5003809;28;121601;-86
2020/12/31 02:05:27;;;;;;;;;;;7.00;76.70;;;;;;5003845;28;121710;-86
2020/12/31 02:07:54;;;;;;;;;;;7.00;76.70;;;;;;4990923;28;117548;-86
2020/12/31 02:10:19;;;;;;;;;;;7.00;76.60;;;;;;4991333;28;117350;-86
2020/12/31 02:12:45;;;;;;;;;;;7.00;76.60;;;;;;5006664;28;117809;-86
2020/12/31 02:15:14;;;;;;;;;;;7.00;76.60;;;;;;4990052;28;119715;-86
2020/12/31 02:17:40;;;;;;;;;;;7.00;76.50;;;;;;4990921;28;117526;-86
2020/12/31 02:20:05;;;;;;;;;;;7.00;76.50;;;;;;4991180;28;117541;-86
2020/12/31 02:22:31;;;;;;;;;;;7.00;76.60;;;;;;4990176;28;121842;-86
2020/12/31 02:24:56;;;;;;;;;;;7.00;76.50;;;;;;4989936;28;120705;-86
2020/12/31 02:27:22;;;;;;;;;;;7.00;76.50;;;;;;4990868;28;117744;-86
2020/12/31 02:29:47;;;;;;;;;;;7.00;76.50;;;;;;4990440;28;117997;-86
2020/12/31 02:32:13;;;;;;;;;;;7.00;76.50;;;;;;5006420;28;120167;-86
2020/12/31 02:34:38;;;;;;;;;;;7.00;76.40;;;;;;4989966;28;117874;-86
2020/12/31 02:37:04;;;;;;;;;;;7.00;76.40;;;;;;4990778;28;117435;-86
2020/12/31 02:39:29;;;;;;;;;;;7.00;76.40;;;;;;4990885;28;117932;-86
2020/12/31 02:41:55;;;;;;;;;;;7.00;76.40;;;;;;4989895;28;120376;-86
2020/12/31 02:44:21;;;;;;;;;;;7.00;76.40;;;;;;4989820;28;119457;-86
2020/12/31 02:46:46;;;;;;;;;;;7.00;76.40;;;;;;4990752;28;117357;-86
2020/12/31 02:49:12;;;;;;;;;;;7.00;76.40;;;;;;5008016;28;117245;-86
2020/12/31 02:51:37;;;;;;;;;;;7.00;76.40;;;;;;4989395;28;121326;-86
2020/12/31 02:54:03;;;;;;;;;;;7.00;76.40;;;;;;4988738;28;119559;-86
2020/12/31 02:56:28;;;;;;;;;;;7.00;76.40;;;;;;4990522;28;117346;-86
2020/12/31 02:58:54;;;;;;;;;;;7.00;76.40;;;;;;5007246;28;117496;-86
2020/12/31 03:01:20;;;;;;;;;;;7.00;76.30;;;;;;4989556;28;119706;-86
2020/12/31 03:03:45;;;;;;;;;;;7.00;76.40;;;;;;4989654;28;119984;-86
2020/12/31 03:06:11;;;;;;;;;;;7.00;76.30;;;;;;5006882;28;117471;-86
2020/12/31 03:08:37;;;;;;;;;;;7.00;76.20;;;;;;4990234;28;117512;-86
2020/12/31 03:11:04;;;;;;;;;;;7.00;76.30;;;;;;4989424;28;118390;-86
2020/12/31 03:13:30;;;;;;;;;;;7.00;76.30;;;;;;4989420;28;119498;-86
2020/12/31 03:15:55;;;;;;;;;;;7.00;76.20;;;;;;4990220;28;117234;-86
2020/12/31 03:18:21;;;;;;;;;;;7.00;76.20;;;;;;5006406;28;117871;-86
2020/12/31 03:20:47;;;;;;;;;;;7.00;76.20;;;;;;4989506;28;117419;-86
2020/12/31 03:23:13;;;;;;;;;;;7.00;76.20;;;;;;4989340;28;120290;-86
2020/12/31 03:25:38;;;;;;;;;;;7.00;76.20;;;;;;4990192;28;117719;-86
2020/12/31 03:28:04;;;;;;;;;;;7.00;76.10;;;;;;4990084;28;117445;-86
2020/12/31 03:30:30;;;;;;;;;;;7.00;76.10;;;;;;4988863;28;120513;-86
2020/12/31 03:32:56;;;;;;;;;;;7.00;76.10;;;;;;4989035;28;120436;-86
2020/12/31 03:35:21;;;;;;;;;;;7.00;76.00;;;;;;4990152;28;117377;-86
2020/12/31 03:37:47;;;;;;;;;;;7.00;76.00;;;;;;4990268;28;117499;-86
2020/12/31 03:40:12;;;;;;;;;;;7.00;76.10;;;;;;4991680;28;121237;-86
2020/12/31 03:42:38;;;;;;;;;;;7.00;76.00;;;;;;5008602;28;117700;-86
2020/12/31 03:45:03;;;;;;;;;;;7.00;76.00;;;;;;4993383;28;117636;-86
2020/12/31 03:47:29;;;;;;;;;;;7.00;76.00;;;;;;4993524;28;117920;-86
2020/12/31 03:49:54;;;;;;;;;;;6.90;75.90;;;;;;4992206;28;119818;-86
2020/12/31 03:52:20;;;;;;;;;;;7.00;76.00;;;;;;4992366;28;118925;-86
2020/12/31 03:54:45;;;;;;;;;;;6.90;75.90;;;;;;4993322;28;117225;-86
2020/12/31 03:57:11;;;;;;;;;;;6.90;75.70;;;;;;5010156;28;117889;-86
2020/12/31 03:59:37;;;;;;;;;;;7.00;75.90;;;;;;4992528;28;121952;-86
2020/12/31 04:02:02;;;;;;;;;;;7.00;75.80;;;;;;4992208;28;119218;-86
2020/12/31 04:04:28;;;;;;;;;;;7.00;75.90;;;;;;4993295;28;117502;-86
2020/12/31 04:06:53;;;;;;;;;;;6.90;75.90;;;;;;4992687;28;117797;-86
2020/12/31 04:09:19;;;;;;;;;;;7.00;75.90;;;;;;4991403;28;120165;-86
2020/12/31 04:11:44;;;;;;;;;;;6.90;75.70;;;;;;4992014;28;119196;-86
2020/12/31 04:14:10;;;;;;;;;;;6.90;75.70;;;;;;4992737;28;117591;-86
2020/12/31 04:16:35;;;;;;;;;;;6.90;75.60;;;;;;4993183;28;117847;-86
2020/12/31 04:19:01;;;;;;;;;;;6.90;75.70;;;;;;4991193;28;120850;-86
2020/12/31 04:21:26;;;;;;;;;;;6.90;75.70;;;;;;4992097;28;120424;-86
2020/12/31 04:23:52;;;;;;;;;;;6.90;75.70;;;;;;4992815;28;117527;-86
2020/12/31 04:26:17;;;;;;;;;;;6.90;75.60;;;;;;4992990;28;117331;-86
2020/12/31 04:28:43;;;;;;;;;;;6.90;75.70;;;;;;5008327;27;118489;-86
2020/12/31 04:31:09;;;;;;;;;;;6.90;75.60;;;;;;4991237;28;119742;-86
2020/12/31 04:33:34;;;;;;;;;;;6.90;76.20;;;;;;5009223;28;117268;-86
2020/12/31 04:36:00;;;;;;;;;;;7.00;75.60;;;;;;4992923;28;117369;-86
2020/12/31 04:38:26;;;;;;;;;;;6.90;75.50;;;;;;4991607;28;120707;-86
2020/12/31 04:40:51;;;;;;;;;;;6.90;75.60;;;;;;5007898;28;120357;-86
2020/12/31 04:43:17;;;;;;;;;;;6.90;75.50;;;;;;4992415;28;117662;-86
2020/12/31 04:45:42;;;;;;;;;;;6.90;75.50;;;;;;5009306;28;117735;-86
2020/12/31 04:48:17;;;;;;;;;;;6.90;75.50;;;;;;4991797;28;120126;-86
2020/12/31 04:50:42;;;;;;;;;;;6.90;75.50;;;;;;5006451;28;120594;-86
2020/12/31 04:53:08;;;;;;;;;;;6.90;75.50;;;;;;4992336;28;117434;-86
2020/12/31 04:55:40;;;;;;;;;;;6.90;75.60;;;;;;4991913;28;117486;-86
2020/12/31 04:58:07;;;;;;;;;;;6.90;75.40;;;;;;5007784;28;120116;-86
2020/12/31 05:00:33;;;;;;;;;;;6.90;75.40;;;;;;4991198;28;120527;-86
2020/12/31 05:02:58;;;;;;;;;;;6.90;75.40;;;;;;4992353;28;117454;-86
2020/12/31 05:05:24;;;;;;;;;;;6.90;75.40;;;;;;4992475;28;117894;-87
2020/12/31 05:07:50;;;;;;;;;;;6.90;75.50;;;;;;4990616;28;121125;-86
2020/12/31 05:10:15;;;;;;;;;;;6.90;75.50;;;;;;4991074;28;119047;-86
2020/12/31 05:12:41;;;;;;;;;;;6.90;75.40;;;;;;4992113;28;117593;-86
2020/12/31 05:15:06;;;;;;;;;;;6.90;75.40;;;;;;4992560;28;117586;-86
2020/12/31 05:17:32;;;;;;;;;;;6.90;75.50;;;;;;4991206;28;120158;-86
2020/12/31 05:19:58;;;;;;;;;;;6.90;75.30;;;;;;4990616;28;120190;-86
2020/12/31 05:22:23;;;;;;;;;;;6.90;75.30;;;;;;5008380;28;117560;-86
2020/12/31 05:24:49;;;;;;;;;;;6.90;75.30;;;;;;4992042;28;118219;-86
2020/12/31 05:27:19;;;;;;;;;;;6.90;75.30;;;;;;4991006;28;120491;-86
2020/12/31 05:29:53;;;;;;;;;;;6.90;75.20;;;;;;4990513;28;120646;-86
2020/12/31 05:32:22;;;;;;;;;;;6.90;75.30;;;;;;5026491;28;117521;-86
2020/12/31 05:34:48;;;;;;;;;;;6.90;75.20;;;;;;4991730;28;117417;-86
2020/12/31 05:37:14;;;;;;;;;;;6.90;75.20;;;;;;4990956;28;121260;-86
2020/12/31 05:39:55;;;;;;;;;;;6.90;75.10;;;;;;4990645;28;119014;-86
2020/12/31 05:42:22;;;;;;;;;;;6.90;75.10;;;;;;4991042;28;117534;-86
2020/12/31 05:45:02;;;;;;;;;;;6.90;75.20;;;;;;4991241;28;117870;-86
2020/12/31 05:47:28;;;;;;;;;;;6.90;75.20;;;;;;5006922;28;120835;-86
2020/12/31 05:49:54;;;;;;;;;;;6.90;75.10;;;;;;4990610;28;119575;-86
2020/12/31 05:52:32;;;;;;;;;;;6.90;75.10;;;;;;4991241;28;117608;-86
2020/12/31 05:54:57;;;;;;;;;;;6.90;75.00;;;;;;4991976;28;117828;-86
2020/12/31 05:57:23;;;;;;;;;;;6.90;75.10;;;;;;4990386;28;120420;-86
2020/12/31 05:59:49;;;;;;;;;;;6.90;75.00;;;;;;4990388;28;119048;-85
2020/12/31 06:02:14;;;;;;;;;;;6.90;75.60;;;;;;5007805;28;117685;-85
2020/12/31 06:04:43;;;;;;;;;;;6.90;75.00;;;;;;4991634;28;117225;-85
2020/12/31 06:07:08;;;;;;;;;;;6.80;75.00;;;;;;5006822;28;118787;-85
2020/12/31 06:09:34;;;;;;;;;;;6.90;75.00;;;;;;4989268;28;119459;-85
2020/12/31 06:12:04;;;;;;;;;;;6.90;75.10;;;;;;5007756;28;117488;-85
2020/12/31 06:14:30;;;;;;;;;;;6.90;75.10;;;;;;4991458;28;117865;-85
2020/12/31 06:16:59;;;;;;;;;;;6.90;75.00;;;;;;4990222;28;120697;-85
2020/12/31 06:19:29;;;;;;;;;;;6.90;75.10;;;;;;4989723;28;118763;-85
2020/12/31 06:21:58;;;;;;;;;;;6.90;75.00;;;;;;4991072;28;117224;-85
2020/12/31 06:24:24;;;;;;;;;;;6.90;75.00;;;;;;4991045;28;117864;-85
2020/12/31 06:26:49;;;;;;;;;;;6.90;74.90;;;;;;5007248;28;117514;-85
2020/12/31 06:29:15;;;;;;;;;;;6.90;74.90;;;;;;4991234;28;119588;-82
2020/12/31 07:08:14;;;;;;;;;;;6.80;74.60;;;;;;5009631;28;117425;-86
2020/12/31 09:37:32;;;;;;;;;;;6.70;74.70;;;;;;5005040;28;119292;-87
2020/12/31 09:43:29;;;;;;;;;;;6.70;74.70;;;;;;4984384;28;117834;-87
2020/12/31 09:46:40;;;;;;;;;;;6.70;74.70;;;;;;4950130;28;117816;-87
2020/12/31 09:49:17;;;;;;;;;;;6.70;74.70;;;;;;4973642;28;117712;-87
2020/12/31 09:52:04;;;;;;;;;;;6.70;74.70;;;;;;4985370;28;117622;-87
2020/12/31 09:54:58;;;;;;;;;;;6.70;74.70;;;;;;4982367;28;117470;-87
2020/12/31 09:57:46;;;;;;;;;;;6.70;74.70;;;;;;4968218;28;117344;-87
2020/12/31 10:00:35;;;;;;;;;;;6.70;74.70;;;;;;4985709;28;117757;-87
2020/12/31 10:03:35;;;;;;;;;;;6.70;74.60;;;;;;4969723;28;117516;-88
2020/12/31 10:06:32;;;;;;;;;;;6.70;75.20;;;;;;4982873;28;117737;-88
2020/12/31 10:15:17;;;;;;;;;;;6.70;74.60;;;;;;4985776;28;117808;-87
2020/12/31 10:18:27;;;;;;;;;;;6.70;74.60;;;;;;4985119;28;117453;-87
2020/12/31 10:21:20;;;;;;;;;;;6.70;74.60;;;;;;4923999;28;117776;-87
2020/12/31 10:23:57;;;;;;;;;;;6.70;74.70;;;;;;4967874;28;117643;-87
2020/12/31 10:26:51;;;;;;;;;;;6.70;74.60;;;;;;4981266;28;117657;-87
2020/12/31 10:29:40;;;;;;;;;;;6.70;74.60;;;;;;4962105;28;118385;-87
2020/12/31 10:32:08;;;;;;;;;;;6.70;74.70;;;;;;4927080;28;117565;-87
2020/12/31 10:35:04;;;;;;;;;;;6.70;74.70;;;;;;4940836;28;117971;-87
2020/12/31 10:40:53;;;;;;;;;;;6.70;74.80;;;;;;4943881;28;117762;-87
2020/12/31 10:43:46;;;;;;;;;;;6.60;74.80;;;;;;4967861;28;117858;-87
2020/12/31 10:46:33;;;;;;;;;;;6.70;74.90;;;;;;4981278;28;117879;-87
2020/12/31 10:49:24;;;;;;;;;;;6.70;74.90;;;;;;4915228;28;117497;-87
2020/12/31 11:32:18;;;;;;;;;;;6.70;75.00;;;;;;4948225;28;117529;-87
2020/12/31 11:35:09;;;;;;;;;;;6.70;75.00;;;;;;4933816;28;117946;-87
2020/12/31 11:38:33;;;;;;;;;;;6.70;75.00;;;;;;4983480;28;118496;-87
2020/12/31 11:45:00;;;;;;;;;;;6.70;75.00;;;;;;4857900;28;117867;-87
2020/12/31 11:48:31;;;;;;;;;;;6.70;74.90;;;;;;4809557;29;117612;-87
2020/12/31 11:51:39;;;;;;;;;;;6.70;74.90;;;;;;4817718;28;117525;-87
2020/12/31 11:57:56;;;;;;;;;;;6.70;75.00;;;;;;4901423;28;117928;-87
2020/12/31 12:00:55;;;;;;;;;;;6.70;75.00;;;;;;4906710;28;117825;-87
2020/12/31 12:03:44;;;;;;;;;;;6.70;75.10;;;;;;4891877;28;117955;-87
2020/12/31 12:06:21;;;;;;;;;;;6.70;75.00;;;;;;4922655;28;118072;-87
2020/12/31 12:08:46;;;;;;;;;;;6.70;75.10;;;;;;4931026;28;117672;-87
2020/12/31 12:11:12;;;;;;;;;;;6.70;75.10;;;;;;4952069;28;117287;-87
2020/12/31 12:13:37;;;;;;;;;;;6.70;75.10;;;;;;4954211;28;119926;-87
2020/12/31 12:16:03;;;;;;;;;;;6.70;75.10;;;;;;4954644;28;119124;-87
2020/12/31 12:18:29;;;;;;;;;;;6.70;75.10;;;;;;4955823;28;117486;-87
2020/12/31 12:20:54;;;;;;;;;;;6.70;75.10;;;;;;4955683;28;117910;-87
2020/12/31 12:23:20;;;;;;;;;;;6.70;75.10;;;;;;4954693;28;120015;-87
2020/12/31 12:25:46;;;;;;;;;;;6.70;75.10;;;;;;4955109;28;119033;-87
2020/12/31 12:28:12;;;;;;;;;;;6.70;75.10;;;;;;4956254;28;117622;-87
2020/12/31 12:30:37;;;;;;;;;;;6.70;75.20;;;;;;4955842;28;117569;-88
2020/12/31 12:33:03;;;;;;;;;;;6.70;75.10;;;;;;4955508;28;120147;-88
2020/12/31 12:35:29;;;;;;;;;;;6.70;75.10;;;;;;4954834;28;119575;-88
2020/12/31 12:37:55;;;;;;;;;;;6.70;75.10;;;;;;4955862;28;117580;-87
2020/12/31 12:40:20;;;;;;;;;;;6.70;75.20;;;;;;4955782;28;117787;-87
2020/12/31 12:42:46;;;;;;;;;;;6.70;75.20;;;;;;4960396;28;119819;-87
2020/12/31 12:45:13;;;;;;;;;;;6.70;75.10;;;;;;4954997;28;119038;-87
2020/12/31 12:47:38;;;;;;;;;;;6.70;75.20;;;;;;4955317;28;117606;-87
2020/12/31 12:50:05;;;;;;;;;;;6.70;75.20;;;;;;4954762;28;117736;-87
2020/12/31 12:52:30;;;;;;;;;;;6.70;75.20;;;;;;4954527;28;120411;-87
2020/12/31 12:54:56;;;;;;;;;;;6.70;75.20;;;;;;4954563;28;120344;-87
2020/12/31 12:57:22;;;;;;;;;;;6.70;75.80;;;;;;4955148;28;117584;-87
2020/12/31 12:59:48;;;;;;;;;;;6.60;75.10;;;;;;4954918;28;118769;-87
2020/12/31 13:02:13;;;;;;;;;;;6.60;75.10;;;;;;4953796;28;119862;-87
2020/12/31 13:04:40;;;;;;;;;;;6.70;75.30;;;;;;4952875;28;119947;-87
2020/12/31 13:07:05;;;;;;;;;;;6.70;75.20;;;;;;4954165;28;117381;-87
2020/12/31 13:09:31;;;;;;;;;;;6.70;75.20;;;;;;4954250;28;117875;-87
2020/12/31 13:11:57;;;;;;;;;;;6.70;75.30;;;;;;4951698;28;120868;-87
2020/12/31 13:14:25;;;;;;;;;;;6.70;75.30;;;;;;4952983;28;119939;-87
2020/12/31 13:16:54;;;;;;;;;;;6.60;75.30;;;;;;4953885;28;117509;-87
2020/12/31 13:19:20;;;;;;;;;;;6.70;75.30;;;;;;4954141;28;117382;-87
2020/12/31 13:21:46;;;;;;;;;;;6.70;75.30;;;;;;4953538;28;121199;-87
2020/12/31 13:24:11;;;;;;;;;;;6.70;75.30;;;;;;4952413;28;120398;-86
2020/12/31 13:26:41;;;;;;;;;;;6.70;75.30;;;;;;4952423;28;117533;-86
2020/12/31 13:29:06;;;;;;;;;;;6.70;75.30;;;;;;4952528;28;117877;-86
2020/12/31 13:31:32;;;;;;;;;;;6.70;75.30;;;;;;4951498;28;120074;-86
2020/12/31 13:33:57;;;;;;;;;;;6.70;75.30;;;;;;4951542;28;120122;-86
2020/12/31 13:36:23;;;;;;;;;;;6.70;75.30;;;;;;4952598;28;117347;-86
2020/12/31 13:38:48;;;;;;;;;;;6.70;75.30;;;;;;4952615;28;117799;-86
2020/12/31 13:41:14;;;;;;;;;;;6.70;75.30;;;;;;4951820;28;121401;-86
2020/12/31 13:43:40;;;;;;;;;;;6.70;75.30;;;;;;4951654;28;119280;-86
2020/12/31 13:46:05;;;;;;;;;;;6.70;75.30;;;;;;4952708;28;117621;-86
2020/12/31 13:48:31;;;;;;;;;;;6.70;75.40;;;;;;4952589;28;117361;-87
2020/12/31 13:50:56;;;;;;;;;;;6.70;75.40;;;;;;4950776;28;120105;-86
2020/12/31 13:53:22;;;;;;;;;;;6.70;75.40;;;;;;4951103;28;119494;-86
2020/12/31 13:55:47;;;;;;;;;;;6.60;75.40;;;;;;4952548;28;117220;-86
2020/12/31 13:58:13;;;;;;;;;;;6.70;75.40;;;;;;4953126;28;117763;-86
2020/12/31 14:00:39;;;;;;;;;;;6.70;75.40;;;;;;4967863;28;118521;-87
2020/12/31 14:03:04;;;;;;;;;;;6.70;75.40;;;;;;4968052;28;117817;-86
2020/12/31 14:05:30;;;;;;;;;;;6.70;75.50;;;;;;4952700;28;117460;-86
2020/12/31 14:07:55;;;;;;;;;;;6.70;75.50;;;;;;4952281;28;117927;-86
2020/12/31 14:10:21;;;;;;;;;;;6.70;75.50;;;;;;4950898;28;120325;-86
2020/12/31 14:12:46;;;;;;;;;;;6.70;75.50;;;;;;4950448;28;120214;-86
2020/12/31 14:15:13;;;;;;;;;;;6.60;75.40;;;;;;4951716;28;117501;-86
2020/12/31 14:17:38;;;;;;;;;;;6.70;75.50;;;;;;4952454;28;117307;-87
2020/12/31 14:20:04;;;;;;;;;;;6.70;75.50;;;;;;4950738;28;119930;-87
2020/12/31 14:22:30;;;;;;;;;;;6.70;75.50;;;;;;4950531;28;120932;-87
2020/12/31 14:24:55;;;;;;;;;;;6.70;75.50;;;;;;4951651;28;117549;-87
2020/12/31 14:27:21;;;;;;;;;;;6.70;75.50;;;;;;4952210;28;117950;-87
2020/12/31 14:29:46;;;;;;;;;;;6.70;75.50;;;;;;4950666;28;120109;-87
2020/12/31 14:32:12;;;;;;;;;;;6.70;75.50;;;;;;4950625;28;119640;-87
2020/12/31 14:34:37;;;;;;;;;;;6.70;75.60;;;;;;4967857;28;117608;-87
2020/12/31 14:37:03;;;;;;;;;;;6.70;75.60;;;;;;4951316;28;117730;-87
2020/12/31 14:39:28;;;;;;;;;;;6.70;75.60;;;;;;4950422;28;121254;-87
2020/12/31 14:41:54;;;;;;;;;;;6.70;75.60;;;;;;4950743;28;119568;-87
2020/12/31 14:44:20;;;;;;;;;;;6.70;75.60;;;;;;4951278;28;117518;-87
2020/12/31 14:46:46;;;;;;;;;;;6.70;75.60;;;;;;4951873;28;117797;-87
2020/12/31 14:49:12;;;;;;;;;;;6.70;75.60;;;;;;4950162;28;120189;-87
2020/12/31 14:51:37;;;;;;;;;;;6.70;75.60;;;;;;4950263;28;119066;-87
2020/12/31 14:54:03;;;;;;;;;;;6.70;75.60;;;;;;4951671;28;117644;-87
2020/12/31 14:56:29;;;;;;;;;;;6.70;75.70;;;;;;4951855;28;117802;-87
2020/12/31 14:58:55;;;;;;;;;;;6.70;75.70;;;;;;4950536;28;120931;-87
2020/12/31 15:01:20;;;;;;;;;;;6.70;75.70;;;;;;4966444;28;117867;-87
2020/12/31 15:03:46;;;;;;;;;;;6.70;75.70;;;;;;4951333;28;117369;-87
2020/12/31 15:06:11;;;;;;;;;;;6.70;75.70;;;;;;4968196;28;117287;-87
2020/12/31 15:08:37;;;;;;;;;;;6.70;75.70;;;;;;4950162;28;120926;-87
2020/12/31 15:11:03;;;;;;;;;;;6.70;75.80;;;;;;4951196;28;119464;-87
2020/12/31 15:13:28;;;;;;;;;;;6.70;75.70;;;;;;4968015;28;117546;-87
2020/12/31 15:15:54;;;;;;;;;;;6.60;75.70;;;;;;4968206;28;117734;-87
2020/12/31 15:18:20;;;;;;;;;;;6.60;75.80;;;;;;4967157;28;118553;-87
2020/12/31 15:20:47;;;;;;;;;;;6.60;75.70;;;;;;4949886;28;119404;-87
2020/12/31 15:23:13;;;;;;;;;;;6.60;75.70;;;;;;4951085;28;117537;-87
2020/12/31 15:25:38;;;;;;;;;;;6.60;75.70;;;;;;4951092;28;117382;-87
2020/12/31 15:28:04;;;;;;;;;;;6.70;75.90;;;;;;4950029;28;120262;-87
2020/12/31 15:30:29;;;;;;;;;;;6.60;75.80;;;;;;4950046;28;119173;-87
2020/12/31 15:32:55;;;;;;;;;;;6.60;75.80;;;;;;4951116;28;117482;-87
2020/12/31 15:35:20;;;;;;;;;;;6.60;76.40;;;;;;4968769;28;117319;-87
2020/12/31 15:38:30;;;;;;;;;;;6.60;75.80;;;;;;4953166;28;121492;-86
2020/12/31 15:40:56;;;;;;;;;;;6.60;75.80;;;;;;4951042;28;117580;-86
2020/12/31 15:43:22;;;;;;;;;;;6.70;75.90;;;;;;4970586;28;117565;-87
2020/12/31 15:45:48;;;;;;;;;;;6.60;75.90;;;;;;4954413;28;117749;-87
2020/12/31 15:48:13;;;;;;;;;;;6.60;76.00;;;;;;4969697;28;121049;-87
2020/12/31 15:50:39;;;;;;;;;;;6.60;75.90;;;;;;4968864;28;117664;-87
2020/12/31 15:53:04;;;;;;;;;;;6.60;75.90;;;;;;4953417;28;117461;-87
2020/12/31 15:55:30;;;;;;;;;;;6.60;75.90;;;;;;4954451;28;117855;-87
2020/12/31 15:57:55;;;;;;;;;;;6.60;75.80;;;;;;4969398;28;120171;-87
2020/12/31 16:00:21;;;;;;;;;;;6.60;75.80;;;;;;4952674;28;119179;-87
2020/12/31 16:02:47;;;;;;;;;;;6.60;75.80;;;;;;4953787;28;117560;-87
2020/12/31 16:05:13;;;;;;;;;;;6.60;75.80;;;;;;4954095;28;117307;-87
2020/12/31 16:07:39;;;;;;;;;;;6.60;75.70;;;;;;4969482;28;118468;-87
2020/12/31 16:10:05;;;;;;;;;;;6.60;75.80;;;;;;4952719;28;120357;-87
2020/12/31 16:12:31;;;;;;;;;;;6.60;75.70;;;;;;4953626;28;117614;-87
2020/12/31 16:14:56;;;;;;;;;;;6.60;75.80;;;;;;4953505;28;117482;-87
2020/12/31 16:17:22;;;;;;;;;;;6.60;75.80;;;;;;4952815;28;120648;-87
2020/12/31 16:19:48;;;;;;;;;;;6.60;75.80;;;;;;4952923;28;119609;-86
2020/12/31 16:22:13;;;;;;;;;;;6.60;75.80;;;;;;4953832;28;117444;-87
2020/12/31 16:24:39;;;;;;;;;;;6.60;75.80;;;;;;4954236;28;117339;-87
2020/12/31 16:27:05;;;;;;;;;;;6.60;75.80;;;;;;4952784;28;119662;-87
2020/12/31 16:29:30;;;;;;;;;;;6.60;75.80;;;;;;4952296;28;118848;-88
2020/12/31 16:32:05;;;;;;;;;;;6.60;75.90;;;;;;4969905;28;117613;-87
2020/12/31 16:34:31;;;;;;;;;;;6.60;75.90;;;;;;4953839;28;117288;-87
2020/12/31 16:36:56;;;;;;;;;;;6.60;75.90;;;;;;4952553;28;120780;-88
2020/12/31 16:39:22;;;;;;;;;;;6.60;75.90;;;;;;4967868;28;120604;-87
2020/12/31 16:41:52;;;;;;;;;;;6.60;75.90;;;;;;4953407;28;117467;-87
2020/12/31 16:44:17;;;;;;;;;;;6.60;75.90;;;;;;4953573;28;117749;-87
2020/12/31 16:46:43;;;;;;;;;;;6.50;75.90;;;;;;4968526;28;117804;-87
2020/12/31 16:49:09;;;;;;;;;;;6.60;75.90;;;;;;4968824;28;117867;-87
2020/12/31 16:51:35;;;;;;;;;;;6.60;75.90;;;;;;4952877;28;117447;-87
2020/12/31 16:54:01;;;;;;;;;;;6.60;75.90;;;;;;4953233;28;117379;-87
2020/12/31 16:56:26;;;;;;;;;;;6.60;75.90;;;;;;4968838;28;117462;-87
2020/12/31 16:58:52;;;;;;;;;;;6.60;75.90;;;;;;4951645;28;118928;-87
2020/12/31 17:01:21;;;;;;;;;;;6.60;75.90;;;;;;4969480;28;117372;-87
2020/12/31 17:03:46;;;;;;;;;;;6.60;75.90;;;;;;4952506;28;117863;-87
2020/12/31 17:06:12;;;;;;;;;;;6.60;75.90;;;;;;4968046;28;120209;-87
2020/12/31 17:08:37;;;;;;;;;;;6.60;75.90;;;;;;4951544;28;119295;-87
2020/12/31 17:11:03;;;;;;;;;;;6.60;75.90;;;;;;4952619;28;117458;-87
2020/12/31 17:13:28;;;;;;;;;;;6.60;75.90;;;;;;4953067;28;117348;-87
2020/12/31 17:15:54;;;;;;;;;;;6.60;75.90;;;;;;4951944;28;119926;-87
2020/12/31 17:18:20;;;;;;;;;;;6.60;75.90;;;;;;4952018;28;119195;-87
2020/12/31 17:20:45;;;;;;;;;;;6.60;75.90;;;;;;4952691;28;117312;-87
2020/12/31 17:23:11;;;;;;;;;;;6.60;75.90;;;;;;4969526;28;117307;-87
2020/12/31 17:25:36;;;;;;;;;;;6.60;75.90;;;;;;4952076;28;120167;-87
2020/12/31 17:28:02;;;;;;;;;;;6.60;75.90;;;;;;4951127;28;119844;-87
2020/12/31 17:30:27;;;;;;;;;;;6.60;75.90;;;;;;4952242;28;117742;-87
2020/12/31 17:32:53;;;;;;;;;;;6.60;75.90;;;;;;4953083;28;117827;-87
2020/12/31 17:35:18;;;;;;;;;;;6.60;75.90;;;;;;4951765;28;119793;-87
2020/12/31 17:37:44;;;;;;;;;;;6.60;75.90;;;;;;4951810;28;119521;-87
2020/12/31 17:40:10;;;;;;;;;;;6.60;75.90;;;;;;4952871;28;117478;-87
2020/12/31 17:42:35;;;;;;;;;;;6.60;75.90;;;;;;4952651;28;117489;-87
2020/12/31 17:45:01;;;;;;;;;;;6.60;76.00;;;;;;4952361;28;120087;-87
2020/12/31 17:47:27;;;;;;;;;;;6.60;75.90;;;;;;4951532;28;119294;-87
2020/12/31 17:49:52;;;;;;;;;;;6.60;75.90;;;;;;4951693;28;117817;-87
2020/12/31 17:52:18;;;;;;;;;;;6.60;75.90;;;;;;4952225;28;117712;-87
2020/12/31 17:54:47;;;;;;;;;;;6.60;75.90;;;;;;4951253;28;119846;-87
2020/12/31 17:57:12;;;;;;;;;;;6.60;75.90;;;;;;4951226;28;118888;-87
2020/12/31 17:59:38;;;;;;;;;;;6.60;76.00;;;;;;4951750;28;117580;-87
2020/12/31 18:02:03;;;;;;;;;;;6.60;75.90;;;;;;4968844;28;117431;-87
2020/12/31 18:04:29;;;;;;;;;;;6.60;76.00;;;;;;4951051;28;121343;-87
2020/12/31 18:06:54;;;;;;;;;;;6.60;76.00;;;;;;4951040;28;120589;-87
2020/12/31 18:09:20;;;;;;;;;;;6.60;76.00;;;;;;4951941;28;117519;-87
2020/12/31 18:11:46;;;;;;;;;;;6.60;76.00;;;;;;4952156;28;117509;-87
2020/12/31 18:14:11;;;;;;;;;;;6.60;76.00;;;;;;4967161;28;119914;-87
2020/12/31 18:16:40;;;;;;;;;;;6.60;75.90;;;;;;4966549;28;120154;-87
2020/12/31 18:19:05;;;;;;;;;;;6.50;75.90;;;;;;4967825;28;117791;-87
2020/12/31 18:21:33;;;;;;;;;;;6.60;76.00;;;;;;4951931;28;117781;-87
2020/12/31 18:23:59;;;;;;;;;;;6.60;76.00;;;;;;4950992;28;121131;-87
2020/12/31 18:26:25;;;;;;;;;;;6.60;76.00;;;;;;4950752;28;119463;-87